Time;durP1;ratioP1;P1;durP2;ratioP2;P2;SDS_P1;SDS_P2;PMS_P1;PMS_P2;Temp;Humidity;BMP_temperature;BMP_pressure;BME280_temperature;BME280_humidity;BME280_pressure;Samples;Min_cycle;Max_cycle;Signal;HPM_P1;HPM_P2
2023/09/08 00:02:25;;;;;;;11.23;5.70;;;;;;;;;;5074584;28;20070;-81
2023/09/08 00:04:50;;;;;;;11.32;6.03;;;;;;;;;;5076027;28;20033;-82
2023/09/08 00:07:16;;;;;;;9.95;5.90;;;;;;;;;;5077570;28;20103;-82
2023/09/08 00:09:41;;;;;;;10.27;5.38;;;;;;;;;;5067545;28;20366;-81
2023/09/08 00:12:06;;;;;;;11.38;6.25;;;;;;;;;;5072511;28;20206;-77
2023/09/08 00:14:32;;;;;;;12.27;6.10;;;;;;;;;;5074209;28;20347;-83
2023/09/08 00:16:57;;;;;;;8.07;5.57;;;;;;;;;;5075230;28;20035;-79
2023/09/08 00:19:23;;;;;;;9.23;5.95;;;;;;;;;;5078780;28;20499;-81
2023/09/08 00:21:49;;;;;;;8.57;5.70;;;;;;;;;;5078481;28;20403;-81
2023/09/08 00:24:14;;;;;;;8.10;5.70;;;;;;;;;;5080694;28;20035;-82
2023/09/08 00:26:40;;;;;;;9.45;6.00;;;;;;;;;;5082021;28;20031;-80
2023/09/08 00:29:05;;;;;;;8.27;5.63;;;;;;;;;;5080656;28;20376;-81
2023/09/08 00:31:30;;;;;;;9.15;6.05;;;;;;;;;;5080263;28;20017;-81
2023/09/08 00:33:56;;;;;;;9.88;6.00;;;;;;;;;;5082947;28;20503;-80
2023/09/08 00:36:21;;;;;;;10.27;6.25;;;;;;;;;;5081645;28;20036;-83
2023/09/08 00:38:46;;;;;;;10.48;6.22;;;;;;;;;;5082290;28;20025;-81
2023/09/08 00:41:12;;;;;;;10.25;6.00;;;;;;;;;;5080855;28;20050;-80
2023/09/08 00:43:37;;;;;;;8.57;6.40;;;;;;;;;;5081123;28;20194;-81
2023/09/08 00:46:03;;;;;;;11.82;6.30;;;;;;;;;;5082128;28;20029;-81
2023/09/08 00:48:29;;;;;;;13.65;6.20;;;;;;;;;;5079879;28;20090;-81
2023/09/08 00:50:55;;;;;;;9.50;6.28;;;;;;;;;;5067933;28;20040;-81
2023/09/08 00:53:21;;;;;;;11.45;6.15;;;;;;;;;;5063448;28;20090;-82
2023/09/08 00:55:47;;;;;;;10.73;6.57;;;;;;;;;;5070848;28;20028;-82
2023/09/08 00:58:12;;;;;;;10.90;6.15;;;;;;;;;;5074994;28;20045;-81
2023/09/08 01:00:38;;;;;;;10.13;6.40;;;;;;;;;;5080568;28;20086;-82
2023/09/08 01:03:04;;;;;;;13.55;6.53;;;;;;;;;;5077349;28;20021;-80
2023/09/08 01:05:29;;;;;;;9.90;6.28;;;;;;;;;;5070002;28;20024;-78
2023/09/08 01:07:55;;;;;;;12.27;6.65;;;;;;;;;;5065498;28;20036;-74
2023/09/08 01:10:21;;;;;;;10.95;6.18;;;;;;;;;;5069244;28;20078;-81
2023/09/08 01:12:46;;;;;;;9.70;6.40;;;;;;;;;;5076048;28;20028;-82
2023/09/08 01:15:12;;;;;;;10.88;6.60;;;;;;;;;;5077145;28;20044;-81
2023/09/08 01:17:37;;;;;;;11.13;6.72;;;;;;;;;;5069461;28;20080;-80
2023/09/08 01:20:26;;;;;;;10.10;6.43;;;;;;;;;;5075712;28;20247;-82
2023/09/08 01:23:11;;;;;;;8.93;5.97;;;;;;;;;;5080192;28;20032;-82
2023/09/08 01:25:41;;;;;;;11.80;6.07;;;;;;;;;;5076806;28;20111;-81
2023/09/08 01:28:08;;;;;;;8.88;5.55;;;;;;;;;;5076698;28;20028;-78
2023/09/08 01:30:33;;;;;;;9.43;6.10;;;;;;;;;;5063524;28;20028;-82
2023/09/08 01:33:00;;;;;;;9.57;5.93;;;;;;;;;;5062091;28;20022;-81
2023/09/08 01:35:25;;;;;;;10.43;6.40;;;;;;;;;;5066269;28;20029;-81
2023/09/08 01:37:50;;;;;;;14.88;6.60;;;;;;;;;;5059956;28;20082;-83
2023/09/08 01:40:18;;;;;;;13.38;6.50;;;;;;;;;;5063246;28;20021;-83
2023/09/08 01:42:44;;;;;;;10.23;6.75;;;;;;;;;;5060321;28;20484;-82
2023/09/08 01:45:10;;;;;;;12.85;6.78;;;;;;;;;;5067085;28;20036;-82
2023/09/08 01:47:37;;;;;;;12.50;6.32;;;;;;;;;;5079253;28;20084;-80
2023/09/08 01:50:02;;;;;;;10.98;6.88;;;;;;;;;;5078223;28;20016;-79
2023/09/08 01:52:28;;;;;;;11.60;6.68;;;;;;;;;;5077424;28;20028;-82
2023/09/08 01:54:53;;;;;;;10.27;6.40;;;;;;;;;;5074020;28;20099;-82
2023/09/08 01:57:19;;;;;;;11.18;6.43;;;;;;;;;;5085918;28;20040;-81
2023/09/08 01:59:48;;;;;;;12.52;6.70;;;;;;;;;;5089279;28;20032;-78
2023/09/08 02:02:13;;;;;;;14.30;7.03;;;;;;;;;;5090097;28;20052;-80
2023/09/08 02:04:39;;;;;;;11.48;7.07;;;;;;;;;;5060211;28;20033;-77
2023/09/08 02:07:05;;;;;;;14.82;6.95;;;;;;;;;;5062283;28;20050;-76
2023/09/08 02:09:35;;;;;;;9.82;7.00;;;;;;;;;;5060680;28;20184;-82
2023/09/08 02:12:01;;;;;;;11.02;6.57;;;;;;;;;;5051311;28;20033;-83
2023/09/08 02:14:27;;;;;;;12.30;6.75;;;;;;;;;;5065845;28;20028;-78
2023/09/08 02:16:55;;;;;;;10.80;6.90;;;;;;;;;;5066832;28;20201;-81
2023/09/08 02:19:20;;;;;;;12.18;6.57;;;;;;;;;;5064205;28;20028;-83
2023/09/08 02:21:46;;;;;;;11.52;6.03;;;;;;;;;;5070100;28;20044;-80
2023/09/08 02:24:12;;;;;;;10.98;5.82;;;;;;;;;;5056733;28;20037;-80
2023/09/08 02:26:41;;;;;;;11.27;5.80;;;;;;;;;;5059807;28;20025;-78
2023/09/08 02:29:07;;;;;;;8.68;5.70;;;;;;;;;;5064732;28;20086;-83
2023/09/08 02:31:32;;;;;;;9.48;5.95;;;;;;;;;;5060296;28;20325;-81
2023/09/08 02:33:58;;;;;;;11.07;6.05;;;;;;;;;;5066336;28;20048;-80
2023/09/08 02:36:26;;;;;;;10.18;6.50;;;;;;;;;;5063564;28;20221;-81
2023/09/08 02:38:52;;;;;;;9.90;6.80;;;;;;;;;;5061532;28;20047;-82
2023/09/08 02:41:18;;;;;;;15.30;7.18;;;;;;;;;;5066186;28;20029;-81
2023/09/08 02:43:44;;;;;;;12.20;6.95;;;;;;;;;;5064755;28;20051;-81
2023/09/08 02:46:09;;;;;;;15.32;6.97;;;;;;;;;;5064749;28;20025;-81
2023/09/08 02:48:35;;;;;;;11.50;7.10;;;;;;;;;;5059210;28;20044;-82
2023/09/08 02:51:00;;;;;;;13.65;6.78;;;;;;;;;;5068154;28;20051;-82
2023/09/08 02:53:28;;;;;;;13.57;7.15;;;;;;;;;;5066145;28;20025;-81
2023/09/08 02:55:57;;;;;;;15.38;7.70;;;;;;;;;;5063154;28;20037;-82
2023/09/08 02:58:22;;;;;;;13.20;7.53;;;;;;;;;;5060930;28;20128;-80
2023/09/08 03:00:48;;;;;;;9.93;6.53;;;;;;;;;;5061633;28;20028;-81
2023/09/08 03:03:13;;;;;;;11.13;6.93;;;;;;;;;;5062284;28;20032;-82
2023/09/08 03:05:39;;;;;;;14.63;7.22;;;;;;;;;;5063727;28;20020;-82
2023/09/08 03:08:06;;;;;;;10.88;6.97;;;;;;;;;;5059197;28;20036;-83
2023/09/08 03:10:34;;;;;;;12.15;6.90;;;;;;;;;;5063061;28;20023;-83
2023/09/08 03:13:02;;;;;;;16.17;6.97;;;;;;;;;;5060580;28;20033;-83
2023/09/08 03:15:28;;;;;;;12.25;6.82;;;;;;;;;;5062485;28;20232;-82
2023/09/08 03:18:01;;;;;;;13.18;7.00;;;;;;;;;;5057935;28;20032;-82
2023/09/08 03:20:28;;;;;;;11.80;6.95;;;;;;;;;;5058759;28;20232;-81
2023/09/08 03:22:54;;;;;;;10.82;6.75;;;;;;;;;;5059779;28;20041;-82
2023/09/08 03:25:19;;;;;;;12.75;7.00;;;;;;;;;;5055235;28;20159;-82
2023/09/08 03:27:45;;;;;;;11.90;7.10;;;;;;;;;;5053336;28;20017;-79
2023/09/08 03:30:10;;;;;;;26.73;7.75;;;;;;;;;;5061349;28;20031;-78
2023/09/08 03:32:37;;;;;;;26.27;7.80;;;;;;;;;;5060684;28;20037;-80
2023/09/08 03:35:07;;;;;;;25.13;6.90;;;;;;;;;;5055096;28;20513;-79
2023/09/08 03:37:34;;;;;;;14.40;7.03;;;;;;;;;;5048020;28;20507;-79
2023/09/08 03:39:59;;;;;;;11.43;6.38;;;;;;;;;;5048158;28;20033;-82
2023/09/08 03:42:25;;;;;;;12.82;6.50;;;;;;;;;;5055465;28;20040;-82
2023/09/08 03:44:52;;;;;;;11.23;6.50;;;;;;;;;;5054809;28;20032;-81
2023/09/08 03:47:17;;;;;;;16.80;6.85;;;;;;;;;;5055210;28;20104;-82
2023/09/08 03:49:42;;;;;;;18.15;6.75;;;;;;;;;;5051889;28;20489;-77
2023/09/08 03:52:08;;;;;;;13.40;6.82;;;;;;;;;;5052460;28;20041;-80
2023/09/08 03:54:33;;;;;;;13.32;6.93;;;;;;;;;;5053109;28;20082;-80
2023/09/08 03:56:58;;;;;;;10.82;6.80;;;;;;;;;;5059422;28;20135;-80
2023/09/08 03:59:24;;;;;;;10.63;6.32;;;;;;;;;;5072085;28;20020;-81
2023/09/08 04:01:49;;;;;;;13.00;6.28;;;;;;;;;;5081850;28;20395;-81
2023/09/08 04:04:14;;;;;;;9.85;6.60;;;;;;;;;;5080592;28;20024;-79
2023/09/08 04:06:41;;;;;;;11.15;6.20;;;;;;;;;;5083584;28;20243;-82
2023/09/08 04:09:06;;;;;;;14.10;6.47;;;;;;;;;;5083594;28;20036;-80
2023/09/08 04:11:31;;;;;;;10.55;6.60;;;;;;;;;;5078015;28;20038;-81
2023/09/08 04:13:57;;;;;;;10.02;6.40;;;;;;;;;;5074644;28;20190;-82
2023/09/08 04:16:22;;;;;;;10.98;6.55;;;;;;;;;;5083149;28;20051;-79
2023/09/08 04:18:48;;;;;;;9.73;6.65;;;;;;;;;;5094437;28;20024;-82
2023/09/08 04:21:13;;;;;;;13.23;6.90;;;;;;;;;;5077401;28;20029;-82
2023/09/08 04:23:39;;;;;;;12.30;6.05;;;;;;;;;;5079922;28;20060;-79
2023/09/08 04:26:04;;;;;;;11.73;6.60;;;;;;;;;;5082227;28;20036;-80
2023/09/08 04:28:29;;;;;;;9.90;6.28;;;;;;;;;;5080446;28;20221;-81
2023/09/08 04:30:55;;;;;;;14.55;6.75;;;;;;;;;;5081514;28;20028;-82
2023/09/08 04:33:20;;;;;;;12.15;7.00;;;;;;;;;;5082450;28;20027;-78
2023/09/08 04:35:45;;;;;;;14.20;7.18;;;;;;;;;;5075891;28;20055;-79
2023/09/08 04:38:11;;;;;;;13.15;6.65;;;;;;;;;;5083099;28;20025;-81
2023/09/08 04:40:39;;;;;;;11.52;7.20;;;;;;;;;;5077022;28;20044;-80
2023/09/08 04:43:05;;;;;;;10.27;6.85;;;;;;;;;;5076788;28;20028;-84
2023/09/08 04:45:30;;;;;;;13.35;6.82;;;;;;;;;;5083818;28;20028;-81
2023/09/08 04:47:55;;;;;;;13.55;6.80;;;;;;;;;;5083519;28;20029;-82
2023/09/08 04:50:21;;;;;;;13.32;6.60;;;;;;;;;;5083649;28;20027;-82
2023/09/08 04:52:46;;;;;;;10.45;6.63;;;;;;;;;;5082629;28;20016;-81
2023/09/08 04:55:11;;;;;;;13.40;6.60;;;;;;;;;;5082392;28;20054;-81
2023/09/08 04:57:37;;;;;;;14.65;6.68;;;;;;;;;;5068516;28;20108;-82
2023/09/08 05:00:02;;;;;;;11.45;6.75;;;;;;;;;;5081109;28;20401;-81
2023/09/08 05:02:28;;;;;;;9.95;6.45;;;;;;;;;;5082664;28;20251;-82
2023/09/08 05:04:53;;;;;;;10.30;6.60;;;;;;;;;;5080936;28;20036;-83
2023/09/08 05:07:19;;;;;;;15.32;7.03;;;;;;;;;;5081664;28;20334;-82
2023/09/08 05:09:44;;;;;;;13.18;6.82;;;;;;;;;;5075615;28;20021;-81
2023/09/08 05:12:10;;;;;;;15.75;6.70;;;;;;;;;;5071447;28;20025;-82
2023/09/08 05:14:35;;;;;;;12.88;7.03;;;;;;;;;;5071969;28;20471;-82
2023/09/08 05:17:00;;;;;;;11.70;6.65;;;;;;;;;;5079509;28;20028;-82
2023/09/08 05:19:26;;;;;;;11.32;7.05;;;;;;;;;;5079761;28;20048;-82
2023/09/08 05:21:53;;;;;;;17.40;6.78;;;;;;;;;;5082984;28;20036;-81
2023/09/08 05:24:18;;;;;;;11.05;6.70;;;;;;;;;;5078459;28;20224;-81
2023/09/08 05:26:44;;;;;;;9.73;6.43;;;;;;;;;;5082698;28;20344;-80
2023/09/08 05:29:09;;;;;;;17.27;7.25;;;;;;;;;;5081053;28;20282;-83
2023/09/08 05:31:35;;;;;;;12.50;6.88;;;;;;;;;;5074766;28;20029;-82
2023/09/08 05:34:00;;;;;;;12.65;6.80;;;;;;;;;;5075036;28;20029;-82
2023/09/08 05:36:25;;;;;;;11.40;6.80;;;;;;;;;;5077776;28;20032;-80
2023/09/08 05:38:51;;;;;;;16.38;7.70;;;;;;;;;;5080554;28;20063;-77
2023/09/08 05:41:16;;;;;;;15.55;7.00;;;;;;;;;;5075047;28;20024;-77
2023/09/08 05:43:41;;;;;;;13.40;7.28;;;;;;;;;;5081277;28;20051;-80
2023/09/08 05:46:07;;;;;;;14.43;6.45;;;;;;;;;;5082146;28;20024;-82
2023/09/08 05:48:32;;;;;;;10.90;7.28;;;;;;;;;;5082595;28;20309;-79
2023/09/08 05:50:58;;;;;;;13.35;7.40;;;;;;;;;;5081829;28;20032;-78
2023/09/08 05:53:24;;;;;;;12.63;7.07;;;;;;;;;;5079280;28;20024;-83
2023/09/08 05:55:49;;;;;;;24.50;7.40;;;;;;;;;;5081477;28;20025;-83
2023/09/08 05:58:14;;;;;;;31.17;7.90;;;;;;;;;;5081541;28;20040;-82
2023/09/08 06:00:40;;;;;;;20.15;7.22;;;;;;;;;;5079027;28;20040;-79
2023/09/08 06:03:06;;;;;;;13.15;6.85;;;;;;;;;;5071788;28;20025;-84
2023/09/08 06:05:31;;;;;;;14.63;6.70;;;;;;;;;;5080730;28;20032;-87
2023/09/08 06:07:57;;;;;;;11.25;6.10;;;;;;;;;;5080033;28;20075;-82
2023/09/08 06:10:22;;;;;;;12.30;7.05;;;;;;;;;;5074194;28;20033;-82
2023/09/08 06:12:50;;;;;;;20.50;7.70;;;;;;;;;;5075342;28;20031;-81
2023/09/08 06:15:16;;;;;;;13.48;6.88;;;;;;;;;;5076349;28;20023;-81
2023/09/08 06:17:41;;;;;;;14.15;6.63;;;;;;;;;;5071755;28;20029;-81
2023/09/08 06:20:07;;;;;;;17.00;7.47;;;;;;;;;;5075613;28;20115;-82
2023/09/08 06:22:34;;;;;;;17.48;6.43;;;;;;;;;;5077791;28;20048;-83
2023/09/08 06:24:59;;;;;;;16.20;6.60;;;;;;;;;;5079315;28;20096;-80
2023/09/08 06:27:24;;;;;;;14.90;6.55;;;;;;;;;;5078516;28;20024;-81
2023/09/08 06:29:51;;;;;;;14.82;6.20;;;;;;;;;;5077555;28;20036;-85
2023/09/08 06:32:16;;;;;;;17.45;6.05;;;;;;;;;;5088561;28;20029;-80
2023/09/08 06:34:42;;;;;;;17.05;6.10;;;;;;;;;;5082742;28;20088;-75
2023/09/08 06:37:08;;;;;;;22.50;6.68;;;;;;;;;;5083402;28;20025;-81
2023/09/08 06:39:33;;;;;;;27.75;6.88;;;;;;;;;;5069464;28;20059;-82
2023/09/08 06:41:59;;;;;;;18.73;6.80;;;;;;;;;;5073970;28;20269;-82
2023/09/08 06:44:24;;;;;;;25.60;6.97;;;;;;;;;;5072949;28;20385;-80
2023/09/08 06:46:49;;;;;;;18.80;6.10;;;;;;;;;;5071222;28;20024;-80
2023/09/08 06:49:15;;;;;;;20.45;6.20;;;;;;;;;;5060558;28;20039;-80
2023/09/08 06:51:42;;;;;;;26.55;6.22;;;;;;;;;;5085793;28;20032;-75
2023/09/08 06:54:09;;;;;;;21.20;6.28;;;;;;;;;;5069048;28;20094;-79
2023/09/08 06:56:37;;;;;;;24.75;6.50;;;;;;;;;;5063145;28;20037;-74
2023/09/08 06:59:02;;;;;;;21.13;5.70;;;;;;;;;;5071726;28;20081;-75
2023/09/08 07:01:28;;;;;;;25.73;5.55;;;;;;;;;;5072733;28;20036;-81
2023/09/08 07:03:53;;;;;;;21.20;5.25;;;;;;;;;;5078278;28;20228;-77
2023/09/08 07:06:22;;;;;;;14.75;5.20;;;;;;;;;;5062772;28;20029;-81
2023/09/08 07:08:49;;;;;;;19.55;5.18;;;;;;;;;;5074587;28;20087;-78
2023/09/08 07:11:14;;;;;;;26.58;6.30;;;;;;;;;;5069733;28;20032;-74
2023/09/08 07:13:40;;;;;;;37.75;6.40;;;;;;;;;;5062531;28;20172;-81
2023/09/08 07:16:05;;;;;;;20.20;5.45;;;;;;;;;;5052982;28;20025;-78
2023/09/08 07:18:35;;;;;;;26.08;5.53;;;;;;;;;;5068905;28;20050;-79
2023/09/08 07:21:01;;;;;;;13.05;4.97;;;;;;;;;;5068751;28;20496;-80
2023/09/08 07:23:26;;;;;;;11.13;5.05;;;;;;;;;;5052462;28;20024;-81
2023/09/08 07:25:51;;;;;;;12.20;4.70;;;;;;;;;;5056419;28;20028;-75
2023/09/08 07:28:17;;;;;;;8.38;4.63;;;;;;;;;;5068693;28;20461;-76
2023/09/08 07:30:43;;;;;;;13.50;4.80;;;;;;;;;;5067998;28;20056;-81
2023/09/08 07:33:08;;;;;;;9.32;4.68;;;;;;;;;;5073270;28;20024;-79
2023/09/08 07:35:38;;;;;;;17.02;4.68;;;;;;;;;;5075734;28;20052;-81
2023/09/08 07:38:03;;;;;;;11.30;4.50;;;;;;;;;;5055241;28;20082;-76
2023/09/08 07:40:29;;;;;;;7.75;4.47;;;;;;;;;;5068718;28;20032;-80
2023/09/08 07:42:54;;;;;;;9.88;4.55;;;;;;;;;;5068760;28;20461;-81
2023/09/08 07:45:20;;;;;;;9.00;4.57;;;;;;;;;;5069858;28;20035;-79
2023/09/08 07:47:45;;;;;;;7.75;4.13;;;;;;;;;;5069230;28;20048;-82
2023/09/08 07:50:24;;;;;;;12.52;5.07;;;;;;;;;;5067698;28;20028;-80
2023/09/08 07:52:51;;;;;;;12.60;4.88;;;;;;;;;;5055538;28;20035;-79
2023/09/08 07:55:16;;;;;;;13.02;4.95;;;;;;;;;;5068929;28;20027;-82
2023/09/08 07:57:43;;;;;;;13.05;5.15;;;;;;;;;;5068453;28;20032;-82
2023/09/08 08:00:13;;;;;;;14.23;5.30;;;;;;;;;;5068290;28;20069;-82
2023/09/08 08:02:43;;;;;;;14.43;5.35;;;;;;;;;;5068780;28;20019;-82
2023/09/08 08:05:09;;;;;;;11.32;5.10;;;;;;;;;;5069001;28;20032;-83
2023/09/08 08:07:34;;;;;;;13.95;5.30;;;;;;;;;;5068507;28;20082;-80
2023/09/08 08:10:00;;;;;;;15.88;5.22;;;;;;;;;;5068885;28;20102;-83
2023/09/08 08:12:25;;;;;;;17.65;5.63;;;;;;;;;;5068920;28;20040;-80
2023/09/08 08:14:51;;;;;;;11.77;5.30;;;;;;;;;;5068657;28;20495;-84
2023/09/08 08:17:17;;;;;;;17.38;5.28;;;;;;;;;;5068968;28;20028;-83
2023/09/08 08:19:43;;;;;;;20.25;5.10;;;;;;;;;;5068816;28;20112;-82
2023/09/08 08:22:08;;;;;;;18.23;5.18;;;;;;;;;;5068676;28;20111;-78
2023/09/08 08:24:33;;;;;;;12.43;5.10;;;;;;;;;;5068473;28;20358;-82
2023/09/08 08:27:01;;;;;;;21.40;5.32;;;;;;;;;;5069000;28;20052;-81
2023/09/08 08:29:27;;;;;;;20.83;5.88;;;;;;;;;;5068332;28;20020;-81
2023/09/08 08:31:52;;;;;;;27.42;5.70;;;;;;;;;;5066516;28;20078;-82
2023/09/08 08:34:17;;;;;;;24.17;5.70;;;;;;;;;;5068645;28;20056;-81
2023/09/08 08:36:43;;;;;;;30.08;5.53;;;;;;;;;;5068758;28;20108;-75
2023/09/08 08:39:08;;;;;;;16.08;5.18;;;;;;;;;;5068125;28;20025;-81
2023/09/08 08:41:37;;;;;;;15.35;5.07;;;;;;;;;;5068777;28;20024;-80
2023/09/08 08:44:03;;;;;;;18.88;5.10;;;;;;;;;;5072446;28;20056;-82
2023/09/08 08:46:30;;;;;;;17.90;4.80;;;;;;;;;;5071944;28;20029;-81
2023/09/08 08:48:56;;;;;;;20.08;4.93;;;;;;;;;;5060364;28;20465;-83
2023/09/08 08:51:23;;;;;;;12.68;4.70;;;;;;;;;;5074816;28;20004;-79
2023/09/08 08:53:48;;;;;;;17.85;4.60;;;;;;;;;;5091179;28;20050;-80
2023/09/08 08:56:14;;;;;;;18.63;4.63;;;;;;;;;;5075500;28;20558;-80
2023/09/08 08:58:40;;;;;;;11.20;4.20;;;;;;;;;;5072494;28;20035;-82
2023/09/08 09:01:06;;;;;;;19.75;4.43;;;;;;;;;;5071857;28;20473;-84
2023/09/08 09:03:34;;;;;;;15.60;5.03;;;;;;;;;;5071494;28;20039;-82
2023/09/08 09:06:01;;;;;;;13.75;4.68;;;;;;;;;;5072068;28;20027;-85
2023/09/08 09:08:26;;;;;;;13.20;4.43;;;;;;;;;;5057783;28;20688;-79
2023/09/08 09:10:52;;;;;;;14.52;4.22;;;;;;;;;;5070098;28;20036;-81
2023/09/08 09:13:17;;;;;;;18.70;4.57;;;;;;;;;;5070966;28;20480;-80
2023/09/08 09:15:44;;;;;;;15.43;4.82;;;;;;;;;;5071316;28;20034;-79
2023/09/08 09:18:10;;;;;;;15.80;4.43;;;;;;;;;;5068266;28;20024;-82
2023/09/08 09:20:40;;;;;;;13.20;4.40;;;;;;;;;;5056461;28;20035;-78
2023/09/08 09:23:05;;;;;;;19.52;4.72;;;;;;;;;;5071052;28;20020;-82
2023/09/08 09:25:31;;;;;;;14.93;4.43;;;;;;;;;;5080311;28;20016;-83
2023/09/08 09:27:58;;;;;;;17.42;4.60;;;;;;;;;;5058852;28;20036;-74
2023/09/08 09:30:25;;;;;;;13.57;4.07;;;;;;;;;;5056263;28;20025;-82
2023/09/08 09:33:09;;;;;;;20.30;4.68;;;;;;;;;;5053307;28;20057;-80
2023/09/08 09:35:45;;;;;;;12.40;4.45;;;;;;;;;;5062091;28;20099;-79
2023/09/08 09:38:11;;;;;;;13.15;4.05;;;;;;;;;;5066844;28;20040;-82
2023/09/08 09:40:37;;;;;;;11.57;3.97;;;;;;;;;;5069616;28;20477;-80
2023/09/08 09:43:04;;;;;;;9.90;3.70;;;;;;;;;;5069902;28;20031;-81
2023/09/08 09:45:30;;;;;;;17.08;3.83;;;;;;;;;;5071361;28;20025;-82
2023/09/08 09:47:56;;;;;;;13.57;4.15;;;;;;;;;;5070809;28;20032;-79
2023/09/08 09:50:36;;;;;;;13.98;4.30;;;;;;;;;;5071156;28;20536;-79
2023/09/08 09:53:08;;;;;;;16.17;4.60;;;;;;;;;;5070294;28;20493;-79
2023/09/08 09:55:36;;;;;;;13.13;4.38;;;;;;;;;;5070509;28;20040;-79
2023/09/08 09:58:03;;;;;;;12.23;4.00;;;;;;;;;;5070641;28;20044;-80
2023/09/08 10:00:31;;;;;;;9.45;3.70;;;;;;;;;;5070675;28;20020;-80
2023/09/08 10:02:58;;;;;;;14.88;4.45;;;;;;;;;;5069253;28;20036;-79
2023/09/08 10:05:25;;;;;;;12.50;4.00;;;;;;;;;;5070516;28;20024;-81
2023/09/08 10:07:51;;;;;;;12.90;4.05;;;;;;;;;;5068995;28;20120;-82
2023/09/08 10:10:17;;;;;;;10.02;4.32;;;;;;;;;;5070453;28;20021;-82
2023/09/08 10:12:51;;;;;;;10.23;4.00;;;;;;;;;;5070781;28;20032;-78
2023/09/08 10:15:20;;;;;;;14.07;4.00;;;;;;;;;;5070465;28;20483;-79
2023/09/08 10:17:52;;;;;;;11.27;3.95;;;;;;;;;;5069197;28;20047;-82
2023/09/08 10:20:21;;;;;;;11.30;4.15;;;;;;;;;;5070031;28;20400;-81
2023/09/08 10:22:49;;;;;;;12.52;4.13;;;;;;;;;;5069836;28;20580;-82
2023/09/08 10:25:17;;;;;;;12.30;4.40;;;;;;;;;;5057471;28;20024;-79
2023/09/08 10:27:43;;;;;;;11.18;4.50;;;;;;;;;;5070079;28;20028;-79
2023/09/08 10:30:09;;;;;;;12.55;4.25;;;;;;;;;;5070336;28;20032;-80
2023/09/08 10:32:36;;;;;;;12.32;4.13;;;;;;;;;;5070214;28;20093;-81
2023/09/08 10:35:06;;;;;;;13.15;4.45;;;;;;;;;;5069163;28;20021;-81
2023/09/08 10:37:32;;;;;;;13.05;4.07;;;;;;;;;;5083224;28;20179;-82
2023/09/08 10:40:20;;;;;;;9.65;3.85;;;;;;;;;;5070100;28;20019;-78
2023/09/08 10:42:45;;;;;;;14.50;4.45;;;;;;;;;;5065057;28;20036;-81
2023/09/08 10:45:16;;;;;;;10.43;4.28;;;;;;;;;;5070183;28;20047;-82
2023/09/08 10:47:45;;;;;;;13.60;4.47;;;;;;;;;;5066464;28;20024;-84
2023/09/08 10:50:17;;;;;;;15.13;4.50;;;;;;;;;;5068942;28;20032;-81
2023/09/08 10:52:43;;;;;;;13.77;3.97;;;;;;;;;;5069448;28;20028;-83
2023/09/08 10:55:08;;;;;;;12.20;4.20;;;;;;;;;;5067959;28;20381;-82
2023/09/08 10:57:33;;;;;;;9.85;4.05;;;;;;;;;;5068104;28;20048;-76
2023/09/08 11:00:20;;;;;;;15.35;4.10;;;;;;;;;;5061845;28;20068;-84
2023/09/08 11:02:50;;;;;;;7.25;4.07;;;;;;;;;;5062392;28;20082;-82
2023/09/08 11:05:16;;;;;;;13.02;4.10;;;;;;;;;;5068394;28;20020;-83
2023/09/08 11:07:44;;;;;;;15.13;4.22;;;;;;;;;;5083026;28;20031;-83
2023/09/08 11:10:11;;;;;;;8.60;3.78;;;;;;;;;;5078961;28;20029;-84
2023/09/08 11:12:36;;;;;;;11.30;4.20;;;;;;;;;;5062312;28;20379;-84
2023/09/08 11:15:08;;;;;;;11.82;4.20;;;;;;;;;;5056421;28;20093;-84
2023/09/08 11:17:35;;;;;;;11.55;4.18;;;;;;;;;;5049731;28;20055;-84
2023/09/08 11:20:08;;;;;;;12.82;4.20;;;;;;;;;;5065038;28;20035;-78
2023/09/08 11:22:34;;;;;;;8.03;3.87;;;;;;;;;;5067658;28;20107;-81
2023/09/08 11:25:04;;;;;;;11.52;4.20;;;;;;;;;;5058706;28;20039;-81
2023/09/08 11:27:31;;;;;;;10.80;3.97;;;;;;;;;;5064823;28;20468;-85
2023/09/08 11:29:57;;;;;;;9.60;4.10;;;;;;;;;;5058012;28;20123;-84
2023/09/08 11:32:23;;;;;;;10.88;4.03;;;;;;;;;;5053764;28;20109;-83
2023/09/08 11:34:48;;;;;;;13.00;4.60;;;;;;;;;;5064591;28;20027;-84
2023/09/08 11:37:17;;;;;;;14.88;4.28;;;;;;;;;;5067184;28;20441;-85
2023/09/08 11:39:44;;;;;;;13.95;4.20;;;;;;;;;;5068911;28;20056;-85
2023/09/08 11:42:15;;;;;;;14.75;4.00;;;;;;;;;;5069287;28;20059;-81
2023/09/08 11:44:41;;;;;;;14.07;4.03;;;;;;;;;;5069312;28;20037;-83
2023/09/08 11:47:07;;;;;;;15.80;4.30;;;;;;;;;;5069233;28;20032;-85
2023/09/08 11:49:36;;;;;;;12.82;4.25;;;;;;;;;;5069258;28;20021;-84
2023/09/08 11:52:03;;;;;;;9.50;4.05;;;;;;;;;;5063606;28;20049;-84
2023/09/08 11:54:31;;;;;;;12.25;4.13;;;;;;;;;;5068926;28;20024;-82
2023/09/08 11:57:01;;;;;;;13.38;4.05;;;;;;;;;;5068684;28;20036;-84
2023/09/08 11:59:34;;;;;;;9.45;4.00;;;;;;;;;;5067953;28;20033;-83
2023/09/08 12:02:00;;;;;;;9.88;3.95;;;;;;;;;;5069165;28;20516;-86
2023/09/08 12:04:25;;;;;;;10.68;4.00;;;;;;;;;;5068888;28;20040;-78
2023/09/08 12:06:52;;;;;;;13.65;4.30;;;;;;;;;;5068583;28;20369;-84
2023/09/08 12:09:20;;;;;;;12.57;3.90;;;;;;;;;;5068822;28;20021;-84
2023/09/08 12:11:46;;;;;;;9.00;4.00;;;;;;;;;;5069163;28;20028;-83
2023/09/08 12:14:12;;;;;;;12.85;4.03;;;;;;;;;;5068783;28;20028;-84
2023/09/08 12:16:39;;;;;;;9.73;4.07;;;;;;;;;;5069204;28;20055;-82
2023/09/08 12:19:04;;;;;;;9.95;3.83;;;;;;;;;;5072507;28;20039;-84
2023/09/08 12:21:31;;;;;;;11.77;4.10;;;;;;;;;;5072734;28;20020;-84
2023/09/08 12:23:57;;;;;;;12.82;4.05;;;;;;;;;;5072316;28;20020;-83
2023/09/08 12:26:25;;;;;;;13.90;4.30;;;;;;;;;;5072725;28;20134;-84
2023/09/08 12:28:51;;;;;;;12.50;4.00;;;;;;;;;;5072292;28;20024;-84
2023/09/08 12:31:17;;;;;;;13.95;3.80;;;;;;;;;;5071043;28;20690;-83
2023/09/08 12:33:43;;;;;;;10.10;3.70;;;;;;;;;;5072046;28;20028;-82
2023/09/08 12:36:17;;;;;;;11.70;3.25;;;;;;;;;;5072400;28;20125;-84
2023/09/08 12:38:52;;;;;;;12.02;3.95;;;;;;;;;;5071703;28;20070;-83
2023/09/08 12:41:18;;;;;;;11.80;3.78;;;;;;;;;;5072629;28;20063;-83
2023/09/08 12:43:44;;;;;;;13.15;3.80;;;;;;;;;;5072404;28;20477;-83
2023/09/08 12:46:10;;;;;;;11.45;4.05;;;;;;;;;;5072449;28;20480;-81
2023/09/08 12:48:35;;;;;;;15.10;3.80;;;;;;;;;;5071636;28;20032;-83
2023/09/08 12:51:01;;;;;;;11.40;4.13;;;;;;;;;;5072167;28;20123;-82
2023/09/08 12:53:26;;;;;;;13.43;4.25;;;;;;;;;;5071907;28;20028;-81
2023/09/08 12:55:52;;;;;;;9.45;3.85;;;;;;;;;;5071613;28;20044;-82
2023/09/08 12:58:17;;;;;;;12.43;4.10;;;;;;;;;;5071983;28;20047;-82
2023/09/08 13:00:44;;;;;;;13.05;3.92;;;;;;;;;;5072111;28;20071;-84
2023/09/08 13:03:09;;;;;;;9.75;3.63;;;;;;;;;;5070348;28;20531;-80
2023/09/08 13:05:35;;;;;;;10.57;3.78;;;;;;;;;;5071917;28;20043;-82
2023/09/08 13:08:01;;;;;;;6.57;4.00;;;;;;;;;;5071082;28;20028;-83
2023/09/08 13:10:26;;;;;;;9.02;3.90;;;;;;;;;;5070497;28;20074;-83
2023/09/08 13:12:51;;;;;;;10.60;4.15;;;;;;;;;;5071810;28;20082;-83
2023/09/08 13:15:17;;;;;;;11.32;4.10;;;;;;;;;;5071347;28;20016;-79
2023/09/08 13:17:42;;;;;;;14.88;4.13;;;;;;;;;;5069985;28;20054;-79
2023/09/08 13:20:08;;;;;;;11.80;3.75;;;;;;;;;;5071790;28;20020;-81
2023/09/08 13:22:34;;;;;;;11.98;3.90;;;;;;;;;;5074282;28;20042;-79
2023/09/08 13:24:59;;;;;;;7.72;3.70;;;;;;;;;;5067945;28;20025;-79
2023/09/08 13:27:25;;;;;;;9.70;3.80;;;;;;;;;;5063572;28;20063;-83
2023/09/08 13:29:50;;;;;;;9.52;4.18;;;;;;;;;;5070056;28;20461;-84
2023/09/08 13:32:16;;;;;;;9.95;4.00;;;;;;;;;;5058574;28;20021;-84
2023/09/08 13:34:43;;;;;;;10.95;3.92;;;;;;;;;;5062717;28;20021;-83
2023/09/08 13:37:08;;;;;;;9.25;3.85;;;;;;;;;;5065485;28;20031;-81
2023/09/08 13:39:34;;;;;;;10.15;3.78;;;;;;;;;;5060351;28;20024;-85
2023/09/08 13:42:01;;;;;;;13.73;3.95;;;;;;;;;;5067661;28;20420;-83
2023/09/08 13:44:26;;;;;;;8.20;3.85;;;;;;;;;;5062255;28;20021;-86
2023/09/08 13:46:56;;;;;;;6.75;3.80;;;;;;;;;;5058430;28;20366;-87
2023/09/08 13:49:22;;;;;;;7.40;3.83;;;;;;;;;;5069733;28;20025;-88
2023/09/08 13:51:51;;;;;;;10.80;3.90;;;;;;;;;;5077015;28;20029;-79
2023/09/08 13:54:18;;;;;;;11.75;3.90;;;;;;;;;;5070850;28;20469;-87
2023/09/08 13:56:44;;;;;;;10.35;3.80;;;;;;;;;;5060980;28;20053;-86
2023/09/08 13:59:09;;;;;;;10.68;3.75;;;;;;;;;;5060782;28;20028;-82
2023/09/08 14:01:36;;;;;;;9.23;3.92;;;;;;;;;;5076400;28;20085;-85
2023/09/08 14:04:03;;;;;;;11.82;4.10;;;;;;;;;;5074350;28;20025;-84
2023/09/08 14:06:28;;;;;;;7.80;4.00;;;;;;;;;;5073038;28;20028;-78
2023/09/08 14:08:54;;;;;;;10.80;3.90;;;;;;;;;;5056300;28;20025;-84
2023/09/08 14:11:21;;;;;;;10.38;3.90;;;;;;;;;;5067284;28;20039;-86
2023/09/08 14:13:47;;;;;;;13.95;4.20;;;;;;;;;;5060975;28;20024;-81
2023/09/08 14:16:12;;;;;;;12.18;3.90;;;;;;;;;;5070068;28;20083;-85
2023/09/08 14:18:38;;;;;;;13.68;3.83;;;;;;;;;;5070274;28;20496;-86
2023/09/08 14:21:04;;;;;;;10.43;4.05;;;;;;;;;;5071384;28;20549;-86
2023/09/08 14:23:29;;;;;;;13.35;4.13;;;;;;;;;;5068500;28;20032;-84
2023/09/08 14:25:55;;;;;;;8.75;3.60;;;;;;;;;;5069725;28;20027;-83
2023/09/08 14:28:20;;;;;;;9.40;4.10;;;;;;;;;;5070046;28;20028;-84
2023/09/08 14:30:46;;;;;;;7.50;3.65;;;;;;;;;;5071758;28;20024;-85